Time;durP1;ratioP1;P1;durP2;ratioP2;P2;SDS_P1;SDS_P2;PMS_P1;PMS_P2;Temp;Humidity;BMP_temperature;BMP_pressure;BME280_temperature;BME280_humidity;BME280_pressure;Samples;Min_cycle;Max_cycle;Signal;HPM_P1;HPM_P2
2022/03/11 00:02:16;;;;;;;11.40;6.20;;;;;;;-3.09;49.56;102110.59;5590330;31;34248;-61
2022/03/11 00:05:19;;;;;;;11.98;6.32;;;;;;;-3.17;50.05;102113.38;5590325;31;34110;-62
2022/03/11 00:08:21;;;;;;;9.82;5.70;;;;;;;-3.19;49.82;102116.91;5590604;31;34269;-62
2022/03/11 00:11:24;;;;;;;11.18;6.05;;;;;;;-3.18;49.66;102110.81;5590617;31;34520;-62
2022/03/11 00:14:27;;;;;;;10.30;6.12;;;;;;;-3.25;49.82;102119.66;5590280;31;34796;-62
2022/03/11 00:17:30;;;;;;;9.48;5.72;;;;;;;-3.33;50.24;102116.38;5590509;31;34689;-62
2022/03/11 00:20:32;;;;;;;13.50;6.05;;;;;;;-3.17;49.59;102120.31;5590252;31;34870;-63
2022/03/11 00:23:36;;;;;;;10.52;6.53;;;;;;;-3.18;49.56;102119.47;5590202;31;34100;-62
2022/03/11 00:26:38;;;;;;;9.75;6.00;;;;;;;-3.22;50.09;102112.66;5589580;31;34860;-62
2022/03/11 00:29:40;;;;;;;11.70;6.65;;;;;;;-3.16;49.90;102111.66;5590180;31;34111;-63
2022/03/11 00:32:42;;;;;;;8.43;5.80;;;;;;;-3.32;50.01;102105.13;5590169;31;34354;-62
2022/03/11 00:35:45;;;;;;;10.63;6.45;;;;;;;-3.44;50.69;102116.66;5590021;31;34966;-61
2022/03/11 00:38:48;;;;;;;10.98;6.35;;;;;;;-3.61;51.26;102108.41;5589135;31;34196;-62
2022/03/11 00:41:51;;;;;;;11.43;6.45;;;;;;;-3.66;51.30;102110.25;5590001;31;34107;-62
2022/03/11 00:44:53;;;;;;;12.32;6.43;;;;;;;-3.72;51.56;102113.84;5590323;31;34243;-62
2022/03/11 00:47:57;;;;;;;11.05;6.47;;;;;;;-3.68;51.57;102112.06;5588982;31;33528;-63
2022/03/11 00:50:59;;;;;;;13.52;7.00;;;;;;;-3.79;51.83;102111.44;5589916;31;34669;-63
2022/03/11 00:54:02;;;;;;;11.40;6.70;;;;;;;-3.78;52.52;102110.56;5589743;31;34934;-62
2022/03/11 00:57:05;;;;;;;10.65;6.57;;;;;;;-3.67;51.58;102111.13;5590134;31;34824;-63
2022/03/11 01:00:09;;;;;;;11.40;6.70;;;;;;;-3.78;51.68;102103.63;5590009;31;34708;-62
2022/03/11 01:03:13;;;;;;;11.50;6.78;;;;;;;-3.85;52.20;102104.63;5588859;31;32737;-62
2022/03/11 01:06:16;;;;;;;11.95;6.78;;;;;;;-3.70;51.52;102098.25;5589750;31;34380;-62
2022/03/11 01:09:19;;;;;;;12.13;6.93;;;;;;;-3.85;52.20;102091.69;5589515;31;34222;-62
2022/03/11 01:12:23;;;;;;;12.07;6.40;;;;;;;-3.64;51.43;102104.16;5589299;31;34648;-62
2022/03/11 01:15:25;;;;;;;11.40;6.47;;;;;;;-3.71;51.46;102100.00;5588905;31;32792;-61
2022/03/11 01:18:28;;;;;;;14.52;6.78;;;;;;;-3.83;51.84;102105.47;5589814;31;34587;-61
2022/03/11 01:21:31;;;;;;;12.73;7.37;;;;;;;-4.06;52.65;102105.09;5588900;31;34804;-62
2022/03/11 01:24:34;;;;;;;11.70;6.50;;;;;;;-4.05;52.71;102099.03;5589641;31;34910;-62
2022/03/11 01:27:37;;;;;;;12.07;6.95;;;;;;;-3.95;52.26;102092.78;5589484;31;34344;-62
2022/03/11 01:30:40;;;;;;;11.80;6.65;;;;;;;-3.86;51.28;102089.12;5589572;31;34196;-62
2022/03/11 01:33:45;;;;;;;14.60;7.47;;;;;;;-3.98;51.97;102098.88;5589778;31;34219;-62
2022/03/11 01:36:48;;;;;;;12.50;6.80;;;;;;;-3.71;51.13;102094.81;5589460;31;35584;-62
2022/03/11 01:39:51;;;;;;;11.15;6.65;;;;;;;-3.95;51.52;102096.22;5589767;31;34844;-62
2022/03/11 01:42:54;;;;;;;11.57;6.87;;;;;;;-4.03;51.91;102087.78;5589488;31;34835;-62
2022/03/11 01:45:58;;;;;;;10.55;6.30;;;;;;;-4.07;51.82;102096.50;5589436;31;34920;-62
2022/03/11 01:49:07;;;;;;;16.55;7.12;;;;;;;-4.13;52.24;102088.00;5588478;31;33220;-63
2022/03/11 01:52:12;;;;;;;12.55;6.82;;;;;;;-4.23;52.79;102092.53;5589176;31;35033;-62
2022/03/11 01:55:15;;;;;;;13.77;7.45;;;;;;;-4.28;52.63;102096.09;5589337;31;34314;-62
2022/03/11 01:58:24;;;;;;;11.32;6.70;;;;;;;-4.32;52.99;102090.13;5589287;31;35530;-63
2022/03/11 02:01:27;;;;;;;11.73;6.50;;;;;;;-4.35;52.93;102085.00;5588521;31;33655;-62
2022/03/11 02:04:30;;;;;;;11.70;6.32;;;;;;;-4.06;52.41;102082.62;5589137;31;34174;-62
2022/03/11 02:07:35;;;;;;;10.65;6.55;;;;;;;-3.94;51.56;102078.94;5589239;31;34175;-62
2022/03/11 02:10:38;;;;;;;14.02;6.78;;;;;;;-4.11;51.34;102083.63;5589260;31;34488;-62
2022/03/11 02:13:46;;;;;;;12.55;5.80;;;;;;;-4.03;51.69;102090.38;5589087;31;34248;-62
2022/03/11 02:16:48;;;;;;;10.20;6.20;;;;;;;-4.12;52.05;102085.38;5588203;31;32873;-62
2022/03/11 02:19:51;;;;;;;10.55;6.12;;;;;;;-4.30;52.33;102085.75;5588495;31;34237;-62
2022/03/11 02:22:57;;;;;;;16.50;6.82;;;;;;;-4.49;53.22;102087.00;5587943;31;33642;-62
2022/03/11 02:26:00;;;;;;;15.25;6.20;;;;;;;-4.62;53.38;102098.50;5589005;31;34872;-62
2022/03/11 02:29:06;;;;;;;10.18;6.25;;;;;;;-4.37;52.59;102094.53;5588215;31;34154;-62
2022/03/11 02:32:09;;;;;;;10.50;6.40;;;;;;;-4.32;52.73;102082.34;5588597;31;34363;-62
2022/03/11 02:35:13;;;;;;;11.35;6.62;;;;;;;-4.30;52.92;102087.47;5589462;31;34140;-62
2022/03/11 02:38:15;;;;;;;11.52;6.35;;;;;;;-4.31;52.76;102096.16;5588967;31;34797;-62
2022/03/11 02:41:19;;;;;;;11.57;6.37;;;;;;;-4.42;53.01;102091.19;5588746;31;34506;-63
2022/03/11 02:44:22;;;;;;;14.45;6.90;;;;;;;-4.43;53.32;102085.16;5588707;31;34135;-62
2022/03/11 02:47:26;;;;;;;11.57;6.68;;;;;;;-4.32;53.33;102082.34;5588615;31;34823;-62
2022/03/11 02:50:29;;;;;;;13.90;6.40;;;;;;;-4.39;53.60;102091.97;5588428;31;34798;-62
2022/03/11 02:53:32;;;;;;;13.00;6.40;;;;;;;-4.51;54.22;102086.22;5587763;31;34837;-62
2022/03/11 02:56:35;;;;;;;12.70;7.28;;;;;;;-4.55;54.11;102075.03;5588459;31;34147;-61
2022/03/11 02:59:37;;;;;;;12.48;5.80;;;;;;;-4.49;54.14;102077.50;5588369;31;34739;-62
2022/03/11 03:02:40;;;;;;;14.02;6.93;;;;;;;-4.56;54.79;102080.25;5588376;31;34297;-62
2022/03/11 03:05:43;;;;;;;10.82;6.60;;;;;;;-4.37;54.54;102086.78;5588330;31;34219;-62
2022/03/11 03:08:45;;;;;;;12.23;6.50;;;;;;;-4.37;54.46;102083.34;5588494;31;34765;-62
2022/03/11 03:11:48;;;;;;;13.25;6.45;;;;;;;-4.40;54.89;102071.28;5588294;31;34229;-62
2022/03/11 03:14:51;;;;;;;13.93;7.45;;;;;;;-4.39;55.10;102086.78;5587421;31;33553;-62
2022/03/11 03:17:55;;;;;;;13.52;7.05;;;;;;;-4.57;55.93;102089.75;5588155;31;34893;-62
2022/03/11 03:20:58;;;;;;;12.95;6.68;;;;;;;-4.49;56.03;102087.87;5588100;31;35448;-63
2022/03/11 03:24:00;;;;;;;11.20;6.12;;;;;;;-4.46;55.69;102094.75;5587356;31;34134;-62
2022/03/11 03:27:03;;;;;;;11.68;6.05;;;;;;;-4.40;54.86;102085.09;5587839;31;34288;-62
2022/03/11 03:30:07;;;;;;;12.35;6.50;;;;;;;-4.41;54.75;102072.19;5587840;31;34272;-62
2022/03/11 03:33:09;;;;;;;10.88;6.57;;;;;;;-4.55;55.21;102069.03;5589611;31;34119;-61
2022/03/11 03:36:12;;;;;;;13.38;6.50;;;;;;;-4.58;54.80;102082.88;5590637;31;34450;-61
2022/03/11 03:39:15;;;;;;;10.23;6.20;;;;;;;-4.45;54.70;102076.56;5590591;31;34253;-62
2022/03/11 03:42:19;;;;;;;12.63;7.05;;;;;;;-4.69;55.29;102068.41;5590940;31;34149;-62
2022/03/11 03:45:21;;;;;;;12.43;6.25;;;;;;;-4.62;55.54;102073.47;5590546;31;34256;-62
2022/03/11 03:48:24;;;;;;;10.88;6.78;;;;;;;-4.61;54.91;102069.12;5590490;31;34276;-61
2022/03/11 03:51:27;;;;;;;11.35;6.75;;;;;;;-4.70;55.17;102074.50;5590486;31;34260;-62
2022/03/11 03:54:30;;;;;;;13.82;6.50;;;;;;;-4.76;55.83;102085.81;5590372;31;34825;-62
2022/03/11 03:57:32;;;;;;;13.80;6.80;;;;;;;-4.58;54.97;102082.88;5590785;31;34223;-62
2022/03/11 04:00:36;;;;;;;15.45;7.00;;;;;;;-4.55;55.14;102084.56;5590386;31;34889;-62
2022/03/11 04:03:39;;;;;;;13.98;6.82;;;;;;;-4.74;55.39;102084.03;5590421;31;34343;-62
2022/03/11 04:06:42;;;;;;;11.02;6.50;;;;;;;-4.69;55.57;102096.91;5590758;31;34234;-62
2022/03/11 04:09:45;;;;;;;10.35;6.00;;;;;;;-4.80;55.75;102102.31;5590415;31;34223;-62
2022/03/11 04:12:50;;;;;;;10.82;6.05;;;;;;;-4.89;56.29;102092.13;5590322;31;34845;-62
2022/03/11 04:15:52;;;;;;;11.57;6.25;;;;;;;-5.06;56.42;102096.72;5590360;31;35376;-62
2022/03/11 04:18:56;;;;;;;16.35;6.28;;;;;;;-5.00;56.13;102092.31;5590377;31;34214;-62
2022/03/11 04:21:58;;;;;;;10.90;6.30;;;;;;;-5.12;56.59;102099.41;5590216;31;34133;-62
2022/03/11 04:25:01;;;;;;;11.63;6.15;;;;;;;-5.16;56.82;102106.38;5589687;31;35394;-62
2022/03/11 04:28:04;;;;;;;13.82;7.00;;;;;;;-5.19;56.97;102109.03;5590087;31;34105;-61
2022/03/11 04:31:09;;;;;;;11.25;6.18;;;;;;;-5.29;57.40;102107.47;5590003;31;34838;-62
2022/03/11 04:34:12;;;;;;;10.63;5.95;;;;;;;-4.98;56.51;102105.19;5589966;31;35609;-62
2022/03/11 04:37:15;;;;;;;11.38;6.00;;;;;;;-4.84;55.70;102105.81;5590050;31;35444;-61
2022/03/11 04:40:19;;;;;;;10.85;6.40;;;;;;;-5.05;56.17;102099.31;5590358;31;34612;-62
2022/03/11 04:43:22;;;;;;;11.77;6.28;;;;;;;-4.99;56.21;102112.16;5589877;31;34583;-62
2022/03/11 04:46:25;;;;;;;12.18;6.55;;;;;;;-5.08;57.02;102111.44;5590001;31;34138;-62
2022/03/11 04:49:27;;;;;;;12.43;6.35;;;;;;;-5.11;57.06;102112.34;5590007;31;34733;-62
2022/03/11 04:52:30;;;;;;;11.68;6.45;;;;;;;-5.17;57.16;102112.44;5590173;31;34267;-62
2022/03/11 04:55:33;;;;;;;12.98;6.55;;;;;;;-5.23;57.41;102111.72;5590238;31;35372;-62
2022/03/11 04:58:36;;;;;;;13.05;6.78;;;;;;;-5.25;57.83;102111.72;5589901;31;34749;-61
2022/03/11 05:01:38;;;;;;;14.48;6.95;;;;;;;-5.19;57.41;102106.44;5589722;31;34194;-61
2022/03/11 05:04:41;;;;;;;12.68;6.50;;;;;;;-5.07;57.35;102110.53;5590268;31;34545;-61
2022/03/11 05:07:44;;;;;;;14.55;6.87;;;;;;;-4.93;56.02;102119.78;5589773;31;34254;-61
2022/03/11 05:10:51;;;;;;;13.27;6.65;;;;;;;-4.94;56.40;102115.47;5589913;31;34176;-60
2022/03/11 05:13:54;;;;;;;14.77;6.80;;;;;;;-5.08;56.89;102124.38;5590027;31;34204;-61
2022/03/11 05:16:56;;;;;;;16.95;7.07;;;;;;;-5.12;56.64;102130.47;5589777;31;34409;-61
2022/03/11 05:20:00;;;;;;;16.92;7.70;;;;;;;-5.07;56.55;102134.69;5589689;31;34276;-61
2022/03/11 05:23:03;;;;;;;13.10;6.62;;;;;;;-5.03;56.18;102132.91;5589734;31;34270;-61
2022/03/11 05:26:24;;;;;;;13.10;6.47;;;;;;;-5.05;56.53;102119.16;5589880;31;34206;-62
2022/03/11 05:29:28;;;;;;;12.43;6.40;;;;;;;-4.93;55.81;102134.44;5589282;31;34341;-61
2022/03/11 05:32:39;;;;;;;13.40;6.70;;;;;;;-5.01;55.97;102129.41;5589206;31;34229;-61
2022/03/11 05:35:41;;;;;;;14.90;7.15;;;;;;;-5.01;56.23;102132.00;5589429;31;35407;-61
2022/03/11 05:38:44;;;;;;;14.00;6.80;;;;;;;-4.91;55.99;102138.72;5589053;31;33006;-61
2022/03/11 05:41:48;;;;;;;16.62;7.35;;;;;;;-4.94;55.63;102135.34;5589395;31;34062;-61
2022/03/11 05:44:50;;;;;;;11.88;6.85;;;;;;;-4.90;55.62;102145.63;5588222;31;33490;-61
2022/03/11 05:47:53;;;;;;;14.13;7.40;;;;;;;-4.84;55.66;102150.66;5589390;31;34998;-60
2022/03/11 05:50:56;;;;;;;12.23;6.82;;;;;;;-4.76;55.52;102149.69;5589422;31;33993;-61
2022/03/11 05:53:59;;;;;;;15.65;7.45;;;;;;;-4.57;54.66;102151.91;5589712;31;34183;-62
2022/03/11 05:57:02;;;;;;;11.63;7.00;;;;;;;-4.59;54.77;102158.84;5588098;31;34523;-61
2022/03/11 06:00:06;;;;;;;14.70;6.87;;;;;;;-4.57;54.87;102151.91;5589268;31;35006;-61
2022/03/11 06:03:13;;;;;;;12.80;6.57;;;;;;;-4.55;54.69;102157.91;5589123;31;34704;-62
2022/03/11 06:06:16;;;;;;;24.42;7.07;;;;;;;-4.47;54.32;102163.81;5589194;31;34210;-61
2022/03/11 06:09:19;;;;;;;14.68;7.20;;;;;;;-4.34;54.65;102159.25;5589237;31;34325;-62
2022/03/11 06:12:22;;;;;;;14.98;7.32;;;;;;;-4.27;53.47;102173.78;5589057;31;34857;-61
2022/03/11 06:15:25;;;;;;;17.85;7.20;;;;;;;-4.09;53.34;102181.19;5589026;31;34672;-61
2022/03/11 06:18:28;;;;;;;14.07;7.00;;;;;;;-3.94;52.55;102180.03;5589077;31;34176;-61
2022/03/11 06:21:30;;;;;;;14.80;7.15;;;;;;;-3.72;52.50;102181.28;5588739;31;34822;-60
2022/03/11 06:24:34;;;;;;;13.35;6.75;;;;;;;-3.45;51.37;102185.00;5588430;31;34930;-61
2022/03/11 06:27:36;;;;;;;15.75;5.82;;;;;;;-3.28;50.69;102177.66;5589057;31;35170;-62
2022/03/11 06:30:39;;;;;;;11.63;6.30;;;;;;;-3.12;50.91;102184.22;5588749;31;34445;-60
2022/03/11 06:33:42;;;;;;;13.57;6.72;;;;;;;-3.03;50.78;102179.69;5588360;31;35015;-61
2022/03/11 06:36:45;;;;;;;15.98;5.93;;;;;;;-2.92;50.19;102175.09;5587968;31;34257;-61
2022/03/11 06:39:48;;;;;;;12.18;6.07;;;;;;;-2.71;49.63;102179.75;5588336;31;34343;-61
2022/03/11 06:42:51;;;;;;;14.23;6.18;;;;;;;-2.47;48.74;102181.66;5588569;31;34897;-61
2022/03/11 06:45:54;;;;;;;12.37;6.03;;;;;;;-2.47;48.16;102175.66;5587980;31;34232;-61
2022/03/11 06:48:57;;;;;;;13.70;6.55;;;;;;;-2.09;46.77;102184.97;5586735;31;32816;-61
2022/03/11 06:52:00;;;;;;;13.38;5.32;;;;;;;-1.78;46.07;102186.63;5587094;31;34090;-61
2022/03/11 06:55:04;;;;;;;12.90;6.18;;;;;;;-1.71;45.08;102189.94;5587975;31;34149;-61
2022/03/11 06:58:08;;;;;;;14.10;5.78;;;;;;;-1.77;45.02;102183.16;5587425;31;34121;-61
2022/03/11 07:01:11;;;;;;;9.43;5.37;;;;;;;-1.68;45.26;102189.81;5587886;31;34164;-61
2022/03/11 07:04:13;;;;;;;18.05;5.82;;;;;;;-1.73;45.04;102189.09;5587915;31;34236;-61
2022/03/11 07:07:16;;;;;;;11.93;5.90;;;;;;;-1.94;44.79;102188.00;5588485;31;34177;-62
2022/03/11 07:10:20;;;;;;;14.40;6.50;;;;;;;-2.07;45.27;102196.19;5589999;31;34206;-61
2022/03/11 07:13:23;;;;;;;15.00;6.40;;;;;;;-2.12;45.58;102198.91;5590221;31;34330;-61
2022/03/11 07:16:25;;;;;;;10.30;5.35;;;;;;;-1.89;45.05;102199.09;5590585;31;34178;-61
2022/03/11 07:19:29;;;;;;;11.95;5.20;;;;;;;-1.75;44.58;102201.31;5590331;31;34213;-61
2022/03/11 07:22:32;;;;;;;15.15;5.32;;;;;;;-1.99;44.50;102199.44;5589193;31;33462;-61
2022/03/11 07:25:36;;;;;;;12.52;5.37;;;;;;;-2.40;45.15;102206.63;5590529;31;34120;-61
2022/03/11 07:28:38;;;;;;;13.27;5.37;;;;;;;-2.40;45.48;102197.97;5590205;31;34863;-61
2022/03/11 07:31:41;;;;;;;11.50;5.20;;;;;;;-1.44;44.06;102196.03;5589959;31;34891;-61
2022/03/11 07:34:44;;;;;;;11.27;5.35;;;;;;;-1.29;42.89;102195.56;5590250;31;34258;-61
2022/03/11 07:37:47;;;;;;;11.15;5.82;;;;;;;-0.92;42.57;102197.88;5590295;31;34252;-61
2022/03/11 07:40:50;;;;;;;14.45;5.37;;;;;;;-0.72;41.21;102198.03;5590115;31;34101;-61
2022/03/11 07:43:52;;;;;;;14.80;5.90;;;;;;;-0.04;40.22;102195.63;5590054;31;34153;-61
2022/03/11 07:47:15;;;;;;;11.07;5.47;;;;;;;0.16;39.92;102201.84;5590623;31;34151;-61
2022/03/11 07:50:18;;;;;;;11.88;5.57;;;;;;;3.32;34.81;102187.00;5590098;31;34933;-61
2022/03/11 07:53:20;;;;;;;10.23;5.30;;;;;;;1.88;35.27;102199.16;5590358;31;34999;-62
2022/03/11 07:56:24;;;;;;;13.68;5.75;;;;;;;1.03;37.64;102192.31;5590389;31;34862;-61
2022/03/11 07:59:31;;;;;;;12.37;5.37;;;;;;;1.80;36.66;102197.75;5590088;31;34159;-61
2022/03/11 08:02:35;;;;;;;7.35;4.28;;;;;;;1.70;35.40;102199.94;5590072;31;34259;-62
2022/03/11 08:05:38;;;;;;;9.20;4.43;;;;;;;2.11;33.84;102201.59;5590165;31;34249;-61
2022/03/11 08:08:43;;;;;;;9.32;4.35;;;;;;;1.88;34.13;102199.16;5590246;31;34287;-61
2022/03/11 08:11:45;;;;;;;12.23;4.85;;;;;;;2.42;33.60;102197.56;5590226;31;34638;-61
2022/03/11 08:14:48;;;;;;;11.00;4.80;;;;;;;4.62;30.23;102192.31;5590215;31;34306;-61
2022/03/11 08:17:54;;;;;;;8.13;4.75;;;;;;;3.67;31.11;102189.63;5589592;31;34581;-61
2022/03/11 08:20:57;;;;;;;9.65;4.22;;;;;;;5.73;28.76;102188.44;5589130;31;34338;-62
2022/03/11 08:24:00;;;;;;;11.68;4.82;;;;;;;2.72;31.44;102185.63;5590067;31;34243;-62
2022/03/11 08:27:03;;;;;;;9.00;4.55;;;;;;;2.23;32.23;102183.63;5590019;31;34168;-62
2022/03/11 08:30:07;;;;;;;8.13;4.03;;;;;;;2.85;31.74;102178.87;5590084;31;34913;-62
2022/03/11 08:33:14;;;;;;;7.90;4.45;;;;;;;4.50;29.45;102186.88;5589664;31;34310;-62
2022/03/11 08:36:39;;;;;;;8.57;4.32;;;;;;;3.81;30.30;102187.97;5589934;31;34845;-61
2022/03/11 08:39:43;;;;;;;8.93;4.40;;;;;;;4.08;29.52;102179.53;5590003;31;34262;-62
2022/03/11 08:42:46;;;;;;;8.32;3.97;;;;;;;3.12;30.67;102173.19;5590192;31;35555;-61
2022/03/11 08:45:48;;;;;;;7.25;4.37;;;;;;;3.08;30.85;102171.66;5590188;31;34263;-62
2022/03/11 08:48:51;;;;;;;7.18;4.07;;;;;;;4.30;29.78;102177.47;5590012;31;34088;-61
2022/03/11 08:51:56;;;;;;;12.85;4.57;;;;;;;6.36;26.92;102162.56;5589836;31;34094;-62
2022/03/11 08:54:59;;;;;;;9.02;4.40;;;;;;;4.87;27.83;102172.53;5589686;31;34955;-63
2022/03/11 08:58:01;;;;;;;9.07;4.80;;;;;;;2.61;31.36;102164.34;5589624;31;34105;-63
2022/03/11 09:01:04;;;;;;;6.93;3.97;;;;;;;2.16;32.80;102159.47;5589748;31;34152;-63
2022/03/11 09:04:07;;;;;;;9.77;3.83;;;;;;;1.24;32.82;102146.16;5589522;31;34245;-62
2022/03/11 09:07:10;;;;;;;10.32;4.25;;;;;;;0.92;34.46;102159.72;5589922;31;34271;-61
2022/03/11 09:10:13;;;;;;;11.02;3.95;;;;;;;0.87;35.27;102155.50;5589332;31;34314;-61
2022/03/11 09:13:16;;;;;;;10.43;3.75;;;;;;;0.65;35.00;102157.28;5589774;31;34405;-61
2022/03/11 09:16:19;;;;;;;9.30;3.65;;;;;;;0.55;34.91;102155.09;5589730;31;34944;-62
2022/03/11 09:19:22;;;;;;;7.93;4.28;;;;;;;-0.08;35.54;102141.84;5590012;31;34265;-62
2022/03/11 09:22:25;;;;;;;9.05;4.90;;;;;;;0.13;35.68;102145.44;5589821;31;34129;-61
2022/03/11 09:25:28;;;;;;;17.20;4.90;;;;;;;0.09;35.55;102138.63;5589155;31;34870;-61
2022/03/11 09:28:31;;;;;;;10.40;4.30;;;;;;;0.04;35.64;102137.09;5589325;31;34287;-61
2022/03/11 09:31:34;;;;;;;9.05;4.90;;;;;;;0.44;35.80;102126.81;5589287;31;34306;-62
2022/03/11 09:34:43;;;;;;;9.70;4.30;;;;;;;0.14;35.40;102134.09;5589428;31;34256;-62
2022/03/11 09:37:46;;;;;;;8.38;4.95;;;;;;;0.08;35.78;102134.31;5589150;31;34466;-62
2022/03/11 09:40:51;;;;;;;11.00;4.82;;;;;;;-0.05;35.97;102128.69;5589690;31;34240;-62
2022/03/11 09:43:55;;;;;;;10.85;4.80;;;;;;;0.07;36.46;102121.31;5589211;31;34555;-62
2022/03/11 09:46:59;;;;;;;19.23;5.43;;;;;;;0.36;35.45;102121.03;5589257;31;34133;-62
2022/03/11 09:50:02;;;;;;;10.77;5.00;;;;;;;0.52;35.78;102116.06;5588462;31;34856;-62
2022/03/11 09:53:05;;;;;;;10.25;4.85;;;;;;;0.42;35.41;102126.03;5588630;31;34607;-62
2022/03/11 09:56:08;;;;;;;7.72;4.90;;;;;;;0.27;35.78;102118.78;5589169;31;34769;-62
2022/03/11 09:59:12;;;;;;;10.35;5.22;;;;;;;0.31;35.60;102113.38;5589364;31;34257;-62
2022/03/11 10:02:16;;;;;;;10.45;4.80;;;;;;;0.32;35.62;102111.63;5589139;31;34294;-61
2022/03/11 10:05:21;;;;;;;9.60;4.62;;;;;;;0.45;35.54;102107.63;5589302;31;34806;-61
2022/03/11 10:08:38;;;;;;;10.60;4.65;;;;;;;0.58;35.45;102113.22;5588537;31;33119;-61
2022/03/11 10:11:41;;;;;;;9.50;5.25;;;;;;;0.66;35.05;102114.59;5589502;31;34957;-61
2022/03/11 10:14:44;;;;;;;10.82;4.90;;;;;;;0.59;35.44;102104.44;5588815;31;34121;-61
2022/03/11 10:17:46;;;;;;;11.02;5.10;;;;;;;0.80;35.33;102107.06;5589383;31;34151;-61
2022/03/11 10:20:49;;;;;;;8.00;4.60;;;;;;;0.91;34.32;102104.00;5588512;31;34994;-61
2022/03/11 10:23:53;;;;;;;9.23;4.90;;;;;;;0.80;34.47;102106.19;5588449;31;34927;-61
2022/03/11 10:26:58;;;;;;;12.82;3.65;;;;;;;0.68;34.29;102112.75;5588816;31;34109;-62
2022/03/11 10:30:13;;;;;;;9.93;3.72;;;;;;;1.10;34.12;102094.47;5588882;31;34295;-62
2022/03/11 10:33:16;;;;;;;8.02;3.70;;;;;;;1.25;34.07;102103.41;5589835;31;34185;-62
2022/03/11 10:36:28;;;;;;;8.93;4.30;;;;;;;1.27;33.15;102102.41;5589082;31;33976;-60
2022/03/11 10:39:41;;;;;;;6.03;3.40;;;;;;;1.30;33.14;102101.44;5588233;31;35454;-61
2022/03/11 10:42:44;;;;;;;9.45;3.92;;;;;;;1.12;32.08;102097.00;5588066;31;34364;-62
2022/03/11 10:45:56;;;;;;;12.65;3.92;;;;;;;1.18;32.69;102084.53;5587447;31;34640;-61
2022/03/11 10:49:00;;;;;;;7.35;3.80;;;;;;;1.49;31.98;102076.19;5588225;31;34446;-62
2022/03/11 10:52:03;;;;;;;7.05;3.30;;;;;;;1.33;31.56;102080.41;5588047;31;35109;-62
2022/03/11 10:55:26;;;;;;;7.87;3.20;;;;;;;1.80;30.62;102069.53;5588037;31;34307;-61
2022/03/11 10:58:29;;;;;;;6.78;3.83;;;;;;;1.25;30.98;102070.28;5588002;31;34208;-61
2022/03/11 11:01:36;;;;;;;9.30;3.70;;;;;;;1.33;31.27;102067.31;5588559;31;34784;-61
2022/03/11 11:04:40;;;;;;;16.73;3.45;;;;;;;1.71;30.21;102058.59;5587991;31;34799;-61
2022/03/11 11:07:44;;;;;;;7.90;3.87;;;;;;;1.74;30.13;102049.78;5587825;31;34189;-62
2022/03/11 11:10:46;;;;;;;7.07;3.90;;;;;;;1.87;30.39;102044.81;5587476;31;34231;-61
2022/03/11 11:13:49;;;;;;;8.20;4.00;;;;;;;2.39;30.78;102043.16;5587984;31;34267;-62
2022/03/11 11:16:55;;;;;;;8.32;3.80;;;;;;;2.79;28.83;102036.81;5588067;31;34195;-61
2022/03/11 11:20:02;;;;;;;9.73;4.18;;;;;;;5.12;27.13;102046.53;5588133;31;35426;-61
2022/03/11 11:23:07;;;;;;;8.05;4.18;;;;;;;7.40;22.94;102030.69;5587824;31;34170;-61
2022/03/11 11:26:11;;;;;;;8.30;3.65;;;;;;;9.16;21.54;102032.66;5586856;31;34267;-63
2022/03/11 11:29:22;;;;;;;26.75;4.45;;;;;;;9.83;20.83;102025.56;5587689;31;34271;-62
2022/03/11 11:32:25;;;;;;;7.60;3.70;;;;;;;11.74;18.40;102024.47;5587666;31;34129;-62
2022/03/11 11:35:41;;;;;;;6.65;3.47;;;;;;;13.91;16.46;102020.97;5587535;31;34156;-62
2022/03/11 11:38:46;;;;;;;7.22;3.67;;;;;;;10.83;18.08;101998.69;5587396;31;34385;-62
2022/03/11 11:41:57;;;;;;;6.40;3.45;;;;;;;8.34;20.10;102016.91;5587863;31;34646;-62
2022/03/11 11:45:01;;;;;;;5.30;3.50;;;;;;;9.38;19.65;102008.03;5587413;31;34866;-63
2022/03/11 11:48:06;;;;;;;5.53;3.40;;;;;;;9.95;19.06;101999.87;5587209;31;34198;-63
2022/03/11 11:51:11;;;;;;;7.12;3.70;;;;;;;11.16;18.04;101991.47;5586755;31;34246;-63
2022/03/11 11:54:32;;;;;;;9.38;3.42;;;;;;;11.39;17.45;101998.28;5588196;31;34548;-63
2022/03/11 11:57:36;;;;;;;6.28;3.17;;;;;;;11.49;17.57;101996.50;5590018;31;34302;-64
2022/03/11 12:00:39;;;;;;;8.20;3.70;;;;;;;12.50;16.08;101980.31;5590191;31;34274;-63
2022/03/11 12:03:49;;;;;;;46.55;4.80;;;;;;;14.88;14.86;101964.12;5590320;31;34127;-63
2022/03/11 12:07:15;;;;;;;4.87;2.97;;;;;;;13.35;15.00;101977.62;5589801;31;34957;-64
2022/03/11 12:10:23;;;;;;;4.72;3.08;;;;;;;10.87;17.70;101988.66;5590203;31;34895;-64
2022/03/11 12:13:36;;;;;;;5.22;2.90;;;;;;;15.02;14.26;101976.91;5589948;31;34872;-63
2022/03/11 12:16:59;;;;;;;5.00;2.90;;;;;;;13.65;15.03;101966.63;5589830;31;34470;-63
2022/03/11 12:20:49;;;;;;;6.22;2.65;;;;;;;13.26;14.67;101965.16;5590364;31;34119;-64
2022/03/11 12:23:52;;;;;;;5.55;3.12;;;;;;;13.23;15.37;101966.28;5589725;31;34805;-63
2022/03/11 12:26:54;;;;;;;6.55;3.03;;;;;;;14.49;14.42;101961.84;5589633;31;34679;-63
2022/03/11 12:30:07;;;;;;;13.07;2.97;;;;;;;11.61;16.06;101952.91;5589711;31;34193;-63
2022/03/11 12:33:14;;;;;;;11.63;3.45;;;;;;;10.30;17.10;101958.09;5589807;31;34430;-64
2022/03/11 12:36:22;;;;;;;6.30;2.85;;;;;;;10.12;17.12;101950.78;5589737;31;34462;-64
2022/03/11 12:39:29;;;;;;;4.57;2.87;;;;;;;13.99;14.69;101947.34;5589797;31;34338;-65
2022/03/11 12:42:40;;;;;;;10.65;2.97;;;;;;;15.57;12.91;101946.13;5589666;31;34581;-64
2022/03/11 12:45:51;;;;;;;3.90;2.92;;;;;;;21.02;10.39;101935.28;5589923;31;34516;-64
2022/03/11 12:48:54;;;;;;;6.03;2.75;;;;;;;14.90;13.27;101944.28;5589666;31;34273;-64
2022/03/11 12:52:19;;;;;;;7.50;2.95;;;;;;;15.65;12.99;101931.91;5590127;31;34234;-64
2022/03/11 12:55:30;;;;;;;4.30;2.35;;;;;;;13.01;14.13;101937.31;5589672;31;35056;-64
2022/03/11 12:58:36;;;;;;;4.47;2.50;;;;;;;11.39;15.24;101929.19;5590102;31;35483;-64
2022/03/11 13:01:42;;;;;;;5.30;2.80;;;;;;;12.85;15.12;101923.75;5589891;31;34695;-64
2022/03/11 13:04:45;;;;;;;4.82;2.72;;;;;;;14.76;13.68;101923.47;5588877;31;34227;-64
2022/03/11 13:08:09;;;;;;;5.78;2.90;;;;;;;16.69;12.21;101913.44;5589373;31;34911;-64
2022/03/11 13:11:14;;;;;;;3.95;2.72;;;;;;;17.31;11.74;101911.72;5589524;31;34342;-64
2022/03/11 13:14:18;;;;;;;4.65;2.80;;;;;;;14.95;13.23;101919.75;5588718;31;34256;-64
2022/03/11 13:17:21;;;;;;;6.82;2.53;;;;;;;14.96;13.19;101924.09;5589877;31;34247;-63
2022/03/11 13:20:26;;;;;;;8.82;2.90;;;;;;;14.10;13.45;101912.41;5589882;31;34181;-64
2022/03/11 13:23:36;;;;;;;4.85;2.60;;;;;;;14.06;14.03;101906.53;5588569;31;34699;-64
2022/03/11 13:26:39;;;;;;;5.68;2.60;;;;;;;14.29;13.64;101904.22;5589656;31;35087;-64
2022/03/11 13:29:42;;;;;;;5.45;2.40;;;;;;;13.86;14.65;101895.19;5589376;31;35455;-65
2022/03/11 13:32:45;;;;;;;4.43;2.40;;;;;;;11.81;15.01;101891.81;5589717;31;34281;-64
2022/03/11 13:36:01;;;;;;;4.62;2.70;;;;;;;11.64;15.93;101883.50;5589314;31;34730;-64
2022/03/11 13:39:20;;;;;;;5.93;2.70;;;;;;;12.83;14.65;101883.12;5588782;31;33528;-64
2022/03/11 13:42:26;;;;;;;4.57;2.42;;;;;;;11.25;15.27;101879.09;5589546;31;34829;-64
2022/03/11 13:45:32;;;;;;;5.32;2.50;;;;;;;11.51;15.27;101879.44;5589600;31;34439;-64
2022/03/11 13:48:36;;;;;;;5.87;2.72;;;;;;;11.32;15.78;101885.56;5589486;31;34246;-64
2022/03/11 13:51:41;;;;;;;3.65;2.40;;;;;;;10.57;16.13;101879.78;5588405;31;34827;-63
2022/03/11 13:54:46;;;;;;;7.97;2.83;;;;;;;10.25;16.88;101880.72;5588751;31;34657;-63
2022/03/11 13:57:49;;;;;;;5.82;2.90;;;;;;;11.66;15.67;101875.41;5588455;31;34213;-64
2022/03/11 14:00:52;;;;;;;4.47;2.58;;;;;;;14.12;13.72;101867.75;5589689;31;34244;-64
2022/03/11 14:03:55;;;;;;;4.72;2.33;;;;;;;16.03;12.79;101869.75;5589493;31;34147;-63
2022/03/11 14:07:06;;;;;;;3.28;2.25;;;;;;;15.56;12.80;101868.69;5588759;31;34231;-63
2022/03/11 14:10:17;;;;;;;5.72;2.67;;;;;;;16.91;12.15;101862.62;5588696;31;34380;-64
2022/03/11 14:13:28;;;;;;;3.80;2.53;;;;;;;19.61;10.46;101864.41;5588637;31;34325;-64
2022/03/11 14:16:30;;;;;;;10.57;2.67;;;;;;;19.91;10.54;101859.75;5587115;31;34434;-63